Time;durP1;ratioP1;P1;durP2;ratioP2;P2;SDS_P1;SDS_P2;PMS_P1;PMS_P2;Temp;Humidity;BMP_temperature;BMP_pressure;BME280_temperature;BME280_humidity;BME280_pressure;Samples;Min_cycle;Max_cycle;Signal;HPM_P1;HPM_P2
2022/01/05 00:01:56;;;;;;;11.90;8.70;;;;;;;4.03;100.00;98006.90;1722548;82;20978;-75
2022/01/05 00:04:23;;;;;;;14.83;9.03;;;;;;;4.03;100.00;98006.90;1665385;84;21064;-74
2022/01/05 00:06:50;;;;;;;11.33;8.40;;;;;;;4.06;100.00;98006.39;1682895;85;21506;-76
2022/01/05 00:09:16;;;;;;;12.85;9.90;;;;;;;4.08;100.00;98006.41;1724384;81;21184;-76
2022/01/05 00:11:43;;;;;;;12.53;8.58;;;;;;;4.03;100.00;97990.94;1750638;80;21129;-80
2022/01/05 00:14:09;;;;;;;13.50;8.33;;;;;;;4.05;100.00;97991.47;1749297;82;21003;-76
2022/01/05 00:16:35;;;;;;;11.25;8.80;;;;;;;4.06;100.00;97985.92;1726637;82;20942;-76
2022/01/05 00:19:02;;;;;;;11.78;9.10;;;;;;;4.08;100.00;97984.31;1723285;82;21055;-76
2022/01/05 00:21:28;;;;;;;9.80;7.67;;;;;;;4.10;100.00;97979.56;1720212;82;21087;-79
2022/01/05 00:23:55;;;;;;;10.63;7.30;;;;;;;4.12;100.00;97986.26;1734926;81;21384;-78
2022/01/05 00:26:21;;;;;;;14.13;9.53;;;;;;;4.15;100.00;97984.94;1716433;82;20984;-78
2022/01/05 00:28:47;;;;;;;13.65;10.82;;;;;;;4.18;100.00;97982.57;1747020;81;21111;-81
2022/01/05 00:31:14;;;;;;;10.95;8.35;;;;;;;4.18;100.00;97973.78;1726265;81;21051;-78
2022/01/05 00:33:40;;;;;;;10.93;9.35;;;;;;;4.14;100.00;97972.69;1709083;82;22169;-79
2022/01/05 00:36:08;;;;;;;11.40;9.08;;;;;;;4.14;100.00;97960.71;1738482;82;21031;-80
2022/01/05 00:38:35;;;;;;;11.97;9.15;;;;;;;4.12;100.00;97950.87;1753156;81;21051;-79
2022/01/05 00:41:01;;;;;;;12.88;9.33;;;;;;;4.14;100.00;97942.90;1768524;81;20983;-83
2022/01/05 00:43:27;;;;;;;10.30;8.18;;;;;;;4.15;100.00;97945.84;1770241;80;21521;-83
2022/01/05 00:45:54;;;;;;;13.03;7.78;;;;;;;4.14;100.00;97932.78;1770604;80;21162;-82
2022/01/05 00:48:20;;;;;;;15.53;9.83;;;;;;;4.11;100.00;97923.46;1768085;81;21422;-79
2022/01/05 00:50:46;;;;;;;11.22;9.13;;;;;;;4.11;100.00;97923.46;1767788;81;20987;-80
2022/01/05 00:53:13;;;;;;;11.35;8.75;;;;;;;4.12;100.00;97917.63;1750103;80;21102;-78
2022/01/05 00:55:41;;;;;;;13.88;10.95;;;;;;;4.14;100.00;97926.94;1762182;81;21078;-80
2022/01/05 00:58:07;;;;;;;13.48;10.68;;;;;;;4.16;100.00;97926.17;1734784;81;21027;-80
2022/01/05 01:00:34;;;;;;;14.68;9.70;;;;;;;4.15;100.00;97913.92;1767912;80;22020;-80
2022/01/05 01:03:00;;;;;;;13.93;9.33;;;;;;;4.17;100.00;97910.47;1755866;81;20951;-80
2022/01/05 01:05:26;;;;;;;13.90;8.58;;;;;;;4.19;100.00;97913.69;1755249;81;21026;-81
2022/01/05 01:07:53;;;;;;;9.65;7.83;;;;;;;4.18;100.00;97905.42;1750566;81;21007;-80
2022/01/05 01:10:19;;;;;;;13.53;8.73;;;;;;;4.22;100.00;97893.77;1722347;81;21139;-80
2022/01/05 01:12:47;;;;;;;12.23;9.95;;;;;;;4.23;100.00;97898.82;1724267;81;21010;-83
2022/01/05 01:15:14;;;;;;;11.20;9.53;;;;;;;4.23;100.00;97893.50;1715664;83;21029;-80
2022/01/05 01:17:41;;;;;;;11.95;9.15;;;;;;;4.23;100.00;97886.84;1756109;80;21024;-78
2022/01/05 01:20:09;;;;;;;15.78;9.48;;;;;;;4.26;100.00;97881.04;1750959;81;21023;-80
2022/01/05 01:22:36;;;;;;;12.40;9.28;;;;;;;4.27;100.00;97879.96;1689241;83;21539;-81
2022/01/05 01:25:05;;;;;;;14.00;10.13;;;;;;;4.28;100.00;97879.44;1691745;83;21869;-79
2022/01/05 01:27:31;;;;;;;16.82;11.30;;;;;;;4.33;100.00;97875.48;1725625;83;20948;-79
2022/01/05 01:29:58;;;;;;;11.70;8.20;;;;;;;4.37;100.00;97867.27;1769635;81;21053;-79
2022/01/05 01:32:24;;;;;;;13.75;9.60;;;;;;;4.44;100.00;97863.88;1769853;81;20994;-76
2022/01/05 01:34:50;;;;;;;12.82;9.55;;;;;;;4.44;100.00;97863.88;1760621;81;21524;-82
2022/01/05 01:37:19;;;;;;;11.05;9.08;;;;;;;4.46;100.00;97862.30;1740606;81;21907;-82
2022/01/05 01:39:45;;;;;;;11.57;9.83;;;;;;;4.50;100.00;97865.52;1756648;81;21018;-74
2022/01/05 01:42:11;;;;;;;14.60;9.55;;;;;;;4.54;100.00;97855.16;1726668;81;21603;-77
2022/01/05 01:44:38;;;;;;;12.58;7.50;;;;;;;4.58;100.00;97849.59;1751983;81;21478;-80
2022/01/05 01:47:04;;;;;;;13.90;9.20;;;;;;;4.60;100.00;97842.97;1717940;81;21094;-78
2022/01/05 01:49:31;;;;;;;12.55;9.58;;;;;;;4.62;100.00;97824.06;1750814;81;21161;-77
2022/01/05 01:51:59;;;;;;;13.95;11.15;;;;;;;4.64;100.00;97824.09;1751779;81;21013;-77
2022/01/05 01:54:26;;;;;;;12.88;9.18;;;;;;;4.68;100.00;97818.52;1713311;83;21549;-84
2022/01/05 01:56:53;;;;;;;9.90;8.05;;;;;;;4.71;100.00;97824.65;1724157;81;21505;-82
2022/01/05 01:59:19;;;;;;;11.68;9.63;;;;;;;4.76;100.00;97822.02;1678372;83;21121;-79
2022/01/05 02:01:46;;;;;;;10.03;8.75;;;;;;;4.81;100.00;97818.58;1722864;81;21185;-76
2022/01/05 02:04:12;;;;;;;9.83;8.78;;;;;;;4.81;100.00;97802.60;1751688;81;20920;-76
2022/01/05 02:06:38;;;;;;;11.65;8.65;;;;;;;4.83;100.00;97805.30;1740646;81;21044;-76
2022/01/05 02:09:05;;;;;;;12.88;8.55;;;;;;;4.87;100.00;97798.91;1751541;81;21025;-77
2022/01/05 02:11:33;;;;;;;15.50;11.10;;;;;;;4.92;100.00;97795.47;1709104;82;21045;-78
2022/01/05 02:13:59;;;;;;;10.20;8.40;;;;;;;4.94;100.00;97794.13;1738882;82;21532;-75
2022/01/05 02:16:30;;;;;;;12.18;8.25;;;;;;;4.94;100.00;97804.78;1722489;82;20994;-75
2022/01/05 02:18:58;;;;;;;9.53;8.28;;;;;;;4.99;100.00;97794.16;1744811;80;21082;-80
2022/01/05 02:21:27;;;;;;;10.68;9.13;;;;;;;5.04;100.00;97789.38;1719175;81;21039;-78
2022/01/05 02:23:54;;;;;;;14.40;7.90;;;;;;;5.04;100.00;97794.18;1734804;81;21046;-76
2022/01/05 02:26:20;;;;;;;11.03;8.55;;;;;;;5.09;100.00;97768.09;1750001;81;21099;-76
2022/01/05 02:28:47;;;;;;;10.08;7.50;;;;;;;5.12;100.00;97768.39;1726085;81;21063;-76
2022/01/05 02:31:13;;;;;;;9.33;7.60;;;;;;;5.20;100.00;97781.72;1721408;81;21077;-74
2022/01/05 02:33:42;;;;;;;10.70;8.15;;;;;;;5.26;100.00;97772.69;1750056;81;21014;-75
2022/01/05 02:36:11;;;;;;;9.98;8.20;;;;;;;5.31;100.00;97774.03;1750084;81;21532;-76
2022/01/05 02:38:37;;;;;;;14.45;7.35;;;;;;;5.34;100.00;97774.83;1750367;81;21162;-76
2022/01/05 02:41:09;;;;;;;10.72;7.45;;;;;;;5.39;100.00;97767.37;1735700;80;21021;-77
2022/01/05 02:43:36;;;;;;;8.03;7.08;;;;;;;5.45;100.00;97763.14;1726877;81;21095;-80
2022/01/05 02:46:03;;;;;;;10.88;6.83;;;;;;;5.52;100.00;97762.33;1725815;81;21090;-75
2022/01/05 02:48:32;;;;;;;11.18;7.60;;;;;;;5.58;100.00;97746.63;1755737;81;21054;-77
2022/01/05 02:50:59;;;;;;;11.28;7.37;;;;;;;5.61;100.00;97737.31;1736795;82;21474;-77
2022/01/05 02:53:26;;;;;;;9.13;7.25;;;;;;;5.62;100.00;97741.02;1736676;82;20980;-78
2022/01/05 02:55:52;;;;;;;9.60;8.08;;;;;;;5.67;100.00;97742.36;1736662;82;21060;-75
2022/01/05 02:58:19;;;;;;;9.55;6.87;;;;;;;5.74;100.00;97743.97;1736683;82;21051;-74
2022/01/05 03:00:45;;;;;;;9.75;7.87;;;;;;;5.80;100.00;97746.38;1739156;81;21004;-77
2022/01/05 03:03:14;;;;;;;9.33;6.67;;;;;;;5.86;100.00;97749.83;1749420;81;21188;-76
2022/01/05 03:05:40;;;;;;;8.85;8.05;;;;;;;5.88;100.00;97742.41;1766918;81;21578;-79
2022/01/05 03:08:07;;;;;;;11.73;8.00;;;;;;;5.89;100.00;97747.48;1747531;81;21079;-76
2022/01/05 03:10:34;;;;;;;9.95;7.03;;;;;;;5.90;100.00;97753.63;1759078;81;21071;-78
2022/01/05 03:13:01;;;;;;;10.55;7.22;;;;;;;5.90;100.00;97741.05;1766831;81;21031;-77
2022/01/05 03:15:30;;;;;;;11.33;7.10;;;;;;;5.92;100.00;97757.61;1765929;80;22045;-76
2022/01/05 03:17:56;;;;;;;8.15;6.67;;;;;;;5.95;100.00;97741.58;1740821;80;21505;-77
2022/01/05 03:20:23;;;;;;;10.03;6.75;;;;;;;5.98;100.00;97746.41;1739283;81;21516;-77
2022/01/05 03:22:51;;;;;;;9.30;7.95;;;;;;;6.02;100.00;97751.47;1739245;81;21012;-76
2022/01/05 03:25:18;;;;;;;9.40;6.92;;;;;;;6.04;100.00;97738.67;1722439;82;21015;-77
2022/01/05 03:27:49;;;;;;;11.40;8.23;;;;;;;6.03;100.00;97753.88;1737196;81;21199;-82
2022/01/05 03:30:21;;;;;;;9.60;6.45;;;;;;;6.06;100.00;97751.20;1743081;81;20992;-79
2022/01/05 03:35:24;;;;;;;9.33;7.80;;;;;;;6.09;100.00;97742.67;1756843;81;21031;-78
2022/01/05 03:37:50;;;;;;;11.30;7.67;;;;;;;6.12;100.00;97744.80;1753488;80;21036;-77
2022/01/05 03:40:16;;;;;;;14.35;8.98;;;;;;;6.16;100.00;97746.38;1737522;81;21642;-77
2022/01/05 03:42:43;;;;;;;8.00;6.97;;;;;;;6.14;100.00;97751.98;1693910;82;2070047;-75
2022/01/05 03:45:09;;;;;;;14.03;8.78;;;;;;;6.16;100.00;97753.05;1755022;81;21117;-73
2022/01/05 03:47:36;;;;;;;10.58;7.85;;;;;;;6.16;100.00;97756.52;1764516;81;21507;-74
2022/01/05 03:50:03;;;;;;;11.55;8.15;;;;;;;6.21;100.00;97757.05;1751511;81;21063;-76
2022/01/05 03:52:30;;;;;;;11.40;7.17;;;;;;;6.24;100.00;97757.30;1764683;81;21081;-76
2022/01/05 03:54:58;;;;;;;13.03;10.70;;;;;;;6.26;100.00;97747.17;1764876;80;21001;-75
2022/01/05 03:57:25;;;;;;;10.60;9.48;;;;;;;6.26;100.00;97742.37;1738899;81;21664;-74
2022/01/05 03:59:52;;;;;;;13.00;9.55;;;;;;;6.26;100.00;97741.03;1735465;81;21021;-74
2022/01/05 04:02:20;;;;;;;10.18;9.13;;;;;;;6.24;100.00;97739.16;1736806;81;21474;-75
2022/01/05 04:04:48;;;;;;;11.18;9.63;;;;;;;6.22;100.00;97743.45;1713094;83;21345;-75
2022/01/05 04:07:15;;;;;;;17.73;10.78;;;;;;;6.22;100.00;97734.64;1738006;81;20996;-75
2022/01/05 04:09:42;;;;;;;14.98;10.43;;;;;;;6.23;100.00;97732.24;1704962;81;21024;-75
2022/01/05 04:12:10;;;;;;;11.43;9.40;;;;;;;6.26;100.00;97720.48;1739043;81;21040;-76
2022/01/05 04:14:36;;;;;;;13.98;10.93;;;;;;;6.30;100.00;97713.53;1713439;83;21037;-75
2022/01/05 04:17:04;;;;;;;12.95;10.13;;;;;;;6.30;100.00;97712.73;1764516;80;21067;-76
2022/01/05 04:19:31;;;;;;;12.85;10.15;;;;;;;6.31;100.00;97719.14;1712533;83;21012;-75
2022/01/05 04:21:57;;;;;;;17.25;10.82;;;;;;;6.30;100.00;97712.20;1749213;81;21569;-76
2022/01/05 04:24:24;;;;;;;14.18;11.03;;;;;;;6.30;100.00;97699.37;1713248;83;21463;-76
2022/01/05 04:26:50;;;;;;;14.63;9.98;;;;;;;6.33;100.00;97696.19;1764840;81;21572;-77
2022/01/05 04:29:17;;;;;;;15.23;10.70;;;;;;;6.34;100.00;97705.77;1764752;81;21509;-77
2022/01/05 04:31:44;;;;;;;13.03;10.82;;;;;;;6.37;100.00;97694.57;1702493;83;21043;-78
2022/01/05 04:34:10;;;;;;;20.60;11.25;;;;;;;6.39;100.00;97696.42;1711829;83;20984;-77
2022/01/05 04:36:36;;;;;;;14.68;11.93;;;;;;;6.40;100.00;97706.03;1687750;83;21111;-78
2022/01/05 04:39:03;;;;;;;20.77;11.63;;;;;;;6.38;100.00;97718.30;1694603;82;21500;-79
2022/01/05 04:41:29;;;;;;;17.30;12.37;;;;;;;6.36;100.00;97710.31;1647455;86;21029;-76
2022/01/05 04:43:55;;;;;;;15.78;11.65;;;;;;;6.38;100.00;97705.52;1654086;84;20980;-75
2022/01/05 04:46:22;;;;;;;12.95;10.90;;;;;;;6.43;100.00;97718.83;1706067;84;20972;-76
2022/01/05 04:48:49;;;;;;;20.65;13.60;;;;;;;6.46;100.00;97731.66;1704879;83;21033;-77
2022/01/05 04:51:16;;;;;;;13.15;11.00;;;;;;;6.46;100.00;97727.12;1699694;84;21660;-77
2022/01/05 04:53:42;;;;;;;17.45;11.03;;;;;;;6.49;100.00;97735.91;1680709;84;21930;-77
2022/01/05 04:56:09;;;;;;;17.40;11.35;;;;;;;6.50;100.00;97713.48;1769896;80;21507;-78
2022/01/05 04:58:35;;;;;;;15.53;12.35;;;;;;;6.53;100.00;97717.47;1739362;81;20984;-77
2022/01/05 05:01:01;;;;;;;23.83;13.50;;;;;;;6.55;100.00;97738.03;1759916;81;21041;-77
2022/01/05 05:03:28;;;;;;;17.37;12.93;;;;;;;6.60;100.00;97725.20;1759905;81;21056;-76
2022/01/05 05:05:54;;;;;;;17.95;13.32;;;;;;;6.62;100.00;97731.86;1744730;81;21091;-76
2022/01/05 05:08:22;;;;;;;14.00;11.78;;;;;;;6.65;100.00;97734.53;1678442;82;21554;-76
2022/01/05 05:10:49;;;;;;;11.70;9.60;;;;;;;6.65;100.00;97721.98;1704824;84;21127;-76
2022/01/05 05:13:16;;;;;;;13.25;10.30;;;;;;;6.65;100.00;97731.86;1759736;81;21027;-75
2022/01/05 05:15:42;;;;;;;12.40;10.00;;;;;;;6.68;100.00;97721.96;1759925;81;21002;-76
2022/01/05 05:18:08;;;;;;;18.07;10.10;;;;;;;6.69;100.00;97712.35;1758808;81;21498;-76
2022/01/05 05:20:36;;;;;;;14.40;10.95;;;;;;;6.72;100.00;97719.00;1689858;84;20993;-75
2022/01/05 05:23:03;;;;;;;12.82;10.63;;;;;;;6.75;100.00;97723.82;1705994;82;21506;-74
2022/01/05 05:25:29;;;;;;;13.70;10.93;;;;;;;6.78;100.00;97728.61;1706077;83;21073;-75
2022/01/05 05:27:56;;;;;;;16.82;11.97;;;;;;;6.78;100.00;97719.25;1704739;84;21538;-76
2022/01/05 05:30:22;;;;;;;14.85;11.83;;;;;;;6.77;100.00;97727.00;1708886;81;21292;-73
2022/01/05 05:32:48;;;;;;;11.88;10.53;;;;;;;6.76;100.00;97715.52;1647456;86;21572;-74
2022/01/05 05:35:15;;;;;;;19.20;13.22;;;;;;;6.79;100.00;97735.55;1686048;84;21050;-74
2022/01/05 05:37:43;;;;;;;11.12;9.83;;;;;;;6.81;100.00;97737.42;1758316;80;21648;-73
2022/01/05 05:40:10;;;;;;;12.88;11.35;;;;;;;6.85;100.00;97735.80;1730884;81;21556;-75
2022/01/05 05:42:36;;;;;;;14.55;12.55;;;;;;;6.88;100.00;97741.39;1756628;81;21856;-74
2022/01/05 05:45:04;;;;;;;12.25;10.10;;;;;;;6.92;100.00;97737.09;1766968;81;20994;-73
2022/01/05 05:47:30;;;;;;;15.75;12.88;;;;;;;6.96;100.00;97736.00;1747681;81;20992;-75
2022/01/05 05:49:56;;;;;;;20.17;12.63;;;;;;;6.99;100.00;97738.95;1718191;83;21025;-75
2022/01/05 05:52:23;;;;;;;14.87;11.40;;;;;;;7.03;100.00;97748.55;1770104;81;21604;-73
2022/01/05 05:54:49;;;;;;;14.10;11.28;;;;;;;7.08;100.00;97760.55;1720195;82;21145;-75
2022/01/05 05:57:15;;;;;;;13.83;10.72;;;;;;;7.11;99.79;97757.31;1741584;81;21035;-75
2022/01/05 05:59:42;;;;;;;13.28;9.98;;;;;;;7.14;99.44;97764.81;1763660;81;20969;-74
2022/01/05 06:02:10;;;;;;;10.20;8.95;;;;;;;7.20;99.26;97781.59;1720098;82;21031;-75
2022/01/05 06:04:37;;;;;;;12.33;9.83;;;;;;;7.25;98.67;97781.58;1769744;81;21032;-74
2022/01/05 06:07:04;;;;;;;12.13;9.25;;;;;;;7.29;98.17;97775.97;1766603;79;21084;-79
2022/01/05 06:09:30;;;;;;;8.48;6.85;;;;;;;7.31;97.63;97781.28;1742696;80;21104;-86
2022/01/05 06:11:56;;;;;;;10.58;8.50;;;;;;;7.36;97.27;97790.62;1737866;82;21561;-83
2022/01/05 06:14:23;;;;;;;12.07;7.87;;;;;;;7.43;96.89;97780.97;1737945;82;21576;-83
2022/01/05 06:16:50;;;;;;;13.35;8.95;;;;;;;7.50;96.38;97782.78;1750443;79;21087;-74
2022/01/05 06:19:16;;;;;;;8.75;7.25;;;;;;;7.55;95.86;97792.12;1751137;81;21168;-74
2022/01/05 06:21:47;;;;;;;11.48;7.87;;;;;;;7.60;95.30;97780.59;1741488;81;20937;-73
2022/01/05 06:24:13;;;;;;;11.03;7.87;;;;;;;7.63;94.82;97787.51;1769869;80;21055;-75
2022/01/05 06:26:40;;;;;;;14.10;7.45;;;;;;;7.66;94.18;97797.67;1769801;80;21000;-77
2022/01/05 06:29:06;;;;;;;9.30;7.80;;;;;;;7.71;94.00;97800.32;1752616;81;20968;-76
2022/01/05 06:31:32;;;;;;;9.78;8.38;;;;;;;7.76;93.40;97792.27;1752713;81;21543;-75
2022/01/05 06:33:59;;;;;;;9.28;7.35;;;;;;;7.82;93.25;97791.67;1768752;81;21019;-76
2022/01/05 06:36:25;;;;;;;14.13;8.30;;;;;;;7.86;92.85;97806.89;1763643;81;21215;-75
2022/01/05 06:38:51;;;;;;;8.40;7.28;;;;;;;7.91;92.36;97802.60;1765355;81;21111;-76
2022/01/05 06:41:19;;;;;;;11.53;7.37;;;;;;;7.95;91.95;97803.64;1764939;81;21126;-73
2022/01/05 06:43:45;;;;;;;7.83;6.40;;;;;;;7.99;91.74;97808.69;1761974;81;22180;-74
2022/01/05 06:46:12;;;;;;;11.35;7.80;;;;;;;8.05;91.37;97807.58;1761909;81;22191;-74
2022/01/05 06:48:41;;;;;;;9.28;6.92;;;;;;;8.10;91.04;97811.56;1757498;81;20975;-73
2022/01/05 06:51:07;;;;;;;10.35;7.42;;;;;;;8.17;90.85;97809.34;1762012;79;21192;-77
2022/01/05 06:53:37;;;;;;;9.45;7.35;;;;;;;8.22;90.41;97816.00;1762157;79;20967;-82
2022/01/05 06:56:04;;;;;;;10.35;7.40;;;;;;;8.26;90.17;97817.03;1745574;81;21095;-77
2022/01/05 06:58:31;;;;;;;7.22;6.22;;;;;;;8.30;89.89;97830.16;1714423;81;21047;-85
2022/01/05 07:01:01;;;;;;;10.80;8.20;;;;;;;8.32;89.55;97833.36;1702276;83;21161;-77
2022/01/05 07:03:29;;;;;;;10.60;8.03;;;;;;;8.37;89.58;97830.64;1710706;83;21021;-78
2022/01/05 07:05:56;;;;;;;12.55;8.25;;;;;;;8.42;89.29;97830.59;1710132;83;21594;-80
2022/01/05 07:08:22;;;;;;;9.93;8.18;;;;;;;8.49;89.22;97832.40;1689646;84;22429;-79
2022/01/05 07:10:49;;;;;;;10.25;7.28;;;;;;;8.54;88.89;97837.71;1688354;84;21635;-76
2022/01/05 07:13:17;;;;;;;11.43;7.90;;;;;;;8.57;88.47;97836.36;1661574;86;21072;-78
2022/01/05 07:15:43;;;;;;;12.03;6.95;;;;;;;8.61;88.40;97833.38;1708582;84;21089;-78
2022/01/05 07:18:10;;;;;;;8.40;7.45;;;;;;;8.63;88.19;97852.09;1733217;81;21000;-76
2022/01/05 07:20:36;;;;;;;7.92;6.25;;;;;;;8.68;88.24;97841.33;1762053;81;22361;-76
2022/01/05 07:23:04;;;;;;;9.13;6.70;;;;;;;8.74;87.97;97852.27;1750491;81;21523;-77
2022/01/05 07:25:30;;;;;;;9.58;6.15;;;;;;;8.81;87.92;97861.86;1760722;81;20930;-80
2022/01/05 07:27:58;;;;;;;8.10;5.62;;;;;;;8.85;87.72;97882.45;1730862;81;21711;-80
2022/01/05 07:30:24;;;;;;;6.62;5.62;;;;;;;8.93;87.54;97872.98;1730498;83;21069;-79
2022/01/05 07:32:55;;;;;;;10.93;5.47;;;;;;;9.01;87.22;97873.73;1730398;82;22216;-73
2022/01/05 07:35:21;;;;;;;9.03;5.97;;;;;;;9.09;86.93;97880.61;1743106;81;21519;-70
2022/01/05 07:37:47;;;;;;;8.03;5.90;;;;;;;9.18;86.60;97868.70;1709530;83;20997;-70
2022/01/05 07:40:14;;;;;;;8.88;6.12;;;;;;;9.27;86.49;97862.17;1680437;84;21212;-71
2022/01/05 07:42:40;;;;;;;10.03;6.00;;;;;;;9.33;85.89;97865.05;1733058;81;21088;-73
2022/01/05 07:45:09;;;;;;;7.47;4.95;;;;;;;9.36;85.66;97861.25;1713327;83;21120;-75
2022/01/05 07:47:36;;;;;;;6.12;5.45;;;;;;;9.42;85.33;97863.34;1764866;81;20936;-73
2022/01/05 07:50:06;;;;;;;7.97;4.92;;;;;;;9.48;85.14;97855.48;1689950;83;21051;-75
2022/01/05 07:52:33;;;;;;;7.35;5.83;;;;;;;9.55;84.83;97853.23;1703437;83;21520;-75
2022/01/05 07:55:01;;;;;;;7.62;5.85;;;;;;;9.60;84.41;97870.08;1713190;83;21524;-76
2022/01/05 07:57:28;;;;;;;7.28;5.72;;;;;;;9.64;84.29;97863.58;1764967;81;21154;-76
2022/01/05 07:59:55;;;;;;;6.12;5.17;;;;;;;9.67;84.19;97867.59;1713295;83;22251;-75
2022/01/05 08:02:21;;;;;;;7.17;5.78;;;;;;;9.68;84.16;97889.33;1743683;81;21565;-75
2022/01/05 08:04:49;;;;;;;7.95;5.95;;;;;;;9.69;84.24;97870.80;1739070;81;21029;-76
2022/01/05 08:07:17;;;;;;;6.35;5.75;;;;;;;9.71;83.98;97893.56;1713339;82;21033;-75
2022/01/05 08:09:43;;;;;;;7.67;5.35;;;;;;;9.72;83.91;97883.63;1764988;81;21857;-76
2022/01/05 08:12:11;;;;;;;8.40;6.30;;;;;;;9.72;83.92;97899.73;1692650;82;21051;-72
2022/01/05 08:14:38;;;;;;;8.35;4.97;;;;;;;9.71;84.04;97888.73;1687522;84;21047;-72
2022/01/05 08:17:04;;;;;;;6.75;5.67;;;;;;;9.70;84.09;97896.53;1706691;83;21543;-77
2022/01/05 08:19:33;;;;;;;8.28;5.97;;;;;;;9.68;84.10;97907.58;1681487;84;21075;-80
2022/01/05 08:21:59;;;;;;;6.55;5.72;;;;;;;9.67;83.97;97935.50;1705088;82;21578;-78
2022/01/05 08:24:27;;;;;;;7.08;5.72;;;;;;;9.67;84.07;97912.68;1705118;82;21027;-79
2022/01/05 08:26:53;;;;;;;8.00;6.55;;;;;;;9.66;84.09;97927.72;1705112;84;21551;-75
2022/01/05 08:29:20;;;;;;;7.62;5.40;;;;;;;9.65;84.01;97932.28;1678790;84;21046;-76
2022/01/05 08:31:46;;;;;;;7.33;5.40;;;;;;;9.65;83.95;97918.86;1683731;83;21035;-77
2022/01/05 08:34:14;;;;;;;13.08;6.00;;;;;;;9.64;83.82;97904.64;1732946;82;21288;-75
2022/01/05 08:36:40;;;;;;;7.53;6.05;;;;;;;9.66;83.92;97923.69;1705765;83;21052;-77
2022/01/05 08:39:06;;;;;;;8.48;6.62;;;;;;;9.67;83.77;97918.59;1765169;81;20992;-78
2022/01/05 08:41:33;;;;;;;8.08;5.40;;;;;;;9.67;83.77;97903.28;1767121;81;21004;-77
2022/01/05 08:43:59;;;;;;;7.87;6.00;;;;;;;9.67;83.71;97934.16;1768411;81;21084;-78
2022/01/05 08:46:27;;;;;;;6.95;5.87;;;;;;;9.69;83.70;97929.84;1758052;81;21535;-78
2022/01/05 08:48:54;;;;;;;6.42;5.83;;;;;;;9.71;83.71;97911.55;1759745;81;20947;-77
2022/01/05 08:51:20;;;;;;;7.80;6.58;;;;;;;9.71;83.65;97922.30;1759307;81;20908;-77
2022/01/05 08:53:48;;;;;;;6.78;6.08;;;;;;;9.76;83.82;97905.58;1764792;81;21522;-77
2022/01/05 08:56:15;;;;;;;8.93;6.40;;;;;;;9.83;83.62;97932.09;1742787;81;20961;-78
2022/01/05 08:58:42;;;;;;;9.48;6.85;;;;;;;9.85;83.55;97923.19;1737843;82;21526;-76
2022/01/05 09:01:11;;;;;;;7.47;6.03;;;;;;;9.89;83.43;97910.78;1746535;81;21203;-76
2022/01/05 09:03:36;;;;;;;6.85;6.10;;;;;;;9.91;83.29;97901.36;1738017;81;21008;-74
2022/01/05 09:06:06;;;;;;;7.33;6.40;;;;;;;9.93;83.16;97905.08;1769747;80;21016;-77
2022/01/05 09:08:35;;;;;;;7.60;6.70;;;;;;;9.97;83.11;97904.24;1761903;81;21568;-75
2022/01/05 09:11:02;;;;;;;6.78;6.10;;;;;;;10.00;83.12;97917.63;1711122;82;21075;-80
2022/01/05 09:13:30;;;;;;;9.13;6.58;;;;;;;10.03;83.02;97898.23;1739536;82;20983;-77
2022/01/05 09:15:57;;;;;;;9.50;6.85;;;;;;;10.04;82.87;97896.61;1739510;82;20983;-76
2022/01/05 09:18:24;;;;;;;7.65;5.60;;;;;;;10.06;82.76;97941.98;1740135;81;21094;-82
2022/01/05 09:20:50;;;;;;;8.73;7.12;;;;;;;10.10;82.69;97899.22;1723460;81;21561;-86
2022/01/05 09:23:17;;;;;;;8.73;6.87;;;;;;;10.13;82.60;97907.49;1734465;81;21047;-83
2022/01/05 09:25:43;;;;;;;10.08;7.70;;;;;;;10.15;82.24;97912.05;1769536;81;21044;-76
2022/01/05 09:28:10;;;;;;;8.73;6.65;;;;;;;10.17;82.07;97909.88;1762140;81;21082;-77
2022/01/05 09:30:38;;;;;;;9.83;6.50;;;;;;;10.19;81.88;97901.00;1738490;81;21055;-85
2022/01/05 09:33:07;;;;;;;7.65;6.72;;;;;;;10.21;81.67;97916.30;1759245;81;20997;-76
2022/01/05 09:35:35;;;;;;;7.92;7.12;;;;;;;10.24;81.57;97919.73;1769890;80;21523;-73
2022/01/05 09:43:15;;;;;;;7.05;6.35;;;;;;;10.37;81.02;97934.31;1712072;81;21544;-81
2022/01/05 09:45:52;;;;;;;7.75;7.00;;;;;;;10.41;80.76;97947.42;1769047;80;21502;-80
2022/01/05 09:48:36;;;;;;;5.62;5.00;;;;;;;10.42;80.11;97952.51;1769684;81;21134;-82
2022/01/05 09:51:09;;;;;;;6.15;5.30;;;;;;;10.44;80.15;97935.56;1754194;81;21027;-81
2022/01/05 09:53:35;;;;;;;7.35;6.05;;;;;;;10.46;79.83;97956.75;1744402;80;21070;-83
2022/01/05 09:56:04;;;;;;;5.78;5.25;;;;;;;10.46;79.43;97954.86;1769971;80;21039;-77
2022/01/05 09:58:31;;;;;;;6.87;6.03;;;;;;;10.47;79.48;97947.06;1752538;81;21049;-80
2022/01/05 10:00:59;;;;;;;8.83;5.70;;;;;;;10.47;79.18;97951.09;1725366;81;21033;-78
2022/01/05 10:03:26;;;;;;;7.45;5.95;;;;;;;10.45;78.74;97955.17;1766110;80;21002;-75
2022/01/05 10:05:52;;;;;;;7.50;6.12;;;;;;;10.44;79.16;97960.29;1741513;81;21047;-73
2022/01/05 10:08:19;;;;;;;6.97;6.30;;;;;;;10.44;79.19;97965.13;1758186;81;21023;-72
2022/01/05 10:10:45;;;;;;;8.65;6.15;;;;;;;10.46;78.81;97977.70;1758022;81;21557;-74
2022/01/05 10:13:11;;;;;;;6.92;6.12;;;;;;;10.48;78.64;97988.17;1770547;81;21158;-73
2022/01/05 10:15:38;;;;;;;6.42;5.58;;;;;;;10.47;78.41;97983.34;1772403;81;21102;-74
2022/01/05 10:18:17;;;;;;;10.30;6.90;;;;;;;10.48;78.20;97984.14;1742371;81;21040;-74
2022/01/05 10:21:02;;;;;;;7.05;6.03;;;;;;;10.47;77.74;98003.50;1769363;81;21028;-77
2022/01/05 10:23:41;;;;;;;8.58;7.08;;;;;;;10.47;77.83;98012.91;1759864;80;21011;-76
2022/01/05 10:26:24;;;;;;;5.87;5.28;;;;;;;10.49;77.15;98008.59;1735999;82;21263;-77
2022/01/05 10:29:00;;;;;;;8.20;5.53;;;;;;;10.51;77.12;97986.23;1751195;81;20926;-78
2022/01/05 10:31:38;;;;;;;8.98;6.53;;;;;;;10.54;76.87;97998.31;1762984;81;21073;-78
2022/01/05 10:34:17;;;;;;;7.92;5.58;;;;;;;10.54;76.69;98011.21;1721521;81;21051;-76
2022/01/05 10:36:47;;;;;;;6.55;5.72;;;;;;;10.54;76.70;98015.78;1685463;84;21436;-78
2022/01/05 10:39:13;;;;;;;6.22;5.30;;;;;;;10.50;76.61;98017.69;1710975;83;21558;-77
2022/01/05 10:41:43;;;;;;;7.03;5.30;;;;;;;10.50;76.72;98010.97;1738594;81;21073;-81
2022/01/05 10:44:19;;;;;;;6.28;5.55;;;;;;;10.51;76.74;98007.74;1688929;83;21127;-86
2022/01/05 10:46:59;;;;;;;5.75;5.05;;;;;;;10.56;77.02;98011.70;1663080;84;20983;-86
2022/01/05 10:49:34;;;;;;;6.12;4.92;;;;;;;10.59;76.70;98009.80;1651573;85;21083;-79
2022/01/05 10:52:26;;;;;;;6.17;5.12;;;;;;;10.62;76.46;98007.06;1658237;85;21106;-87
2022/01/05 10:55:18;;;;;;;5.70;4.67;;;;;;;10.61;75.40;98016.20;1671896;85;21015;-82
2022/01/05 10:58:06;;;;;;;5.60;4.92;;;;;;;10.54;75.36;98028.69;1632130;86;21015;-83
2022/01/05 11:00:54;;;;;;;7.75;4.67;;;;;;;10.47;74.86;98025.55;1692237;84;21067;-84
2022/01/05 11:03:31;;;;;;;5.20;4.60;;;;;;;10.44;74.93;98019.41;1689658;82;21118;-81
2022/01/05 11:06:12;;;;;;;5.20;4.70;;;;;;;10.44;75.00;98043.60;1671955;84;21148;-82
2022/01/05 11:09:04;;;;;;;6.25;4.75;;;;;;;10.43;73.79;98033.94;1694552;84;21544;-79
2022/01/05 11:11:43;;;;;;;5.08;4.58;;;;;;;10.41;73.50;98031.53;1680159;85;21071;-82
2022/01/05 11:14:21;;;;;;;6.00;5.40;;;;;;;10.41;72.80;98022.13;1693565;84;21016;-80
2022/01/05 11:16:54;;;;;;;4.72;4.30;;;;;;;10.41;72.67;98018.63;1704303;84;20975;-79
2022/01/05 11:19:29;;;;;;;6.30;4.55;;;;;;;10.41;72.83;98018.09;1685002;83;21823;-85
2022/01/05 11:22:10;;;;;;;8.15;5.33;;;;;;;10.42;73.02;98017.55;1685045;82;21012;-84
2022/01/05 11:24:48;;;;;;;5.62;4.58;;;;;;;10.44;73.17;98030.97;1658221;85;21016;-83
2022/01/05 11:27:24;;;;;;;17.35;8.38;;;;;;;10.46;73.06;98037.38;1668483;84;21044;-82
2022/01/05 11:29:51;;;;;;;41.15;12.70;;;;;;;10.47;72.99;98034.95;1672020;85;21588;-81
2022/01/05 11:32:27;;;;;;;8.78;5.58;;;;;;;10.46;73.35;98028.77;1672050;85;20992;-85
2022/01/05 11:35:02;;;;;;;8.10;5.78;;;;;;;10.47;73.24;98052.42;1656520;85;21048;-85
2022/01/05 11:37:35;;;;;;;5.85;4.80;;;;;;;10.45;73.08;98049.23;1633981;86;21590;-87
2022/01/05 11:40:17;;;;;;;6.40;4.50;;;;;;;10.38;73.15;98040.17;1669042;85;21071;-81
2022/01/05 11:42:50;;;;;;;6.17;4.47;;;;;;;10.35;73.47;98044.80;1670346;84;21138;-78